Time;durP1;ratioP1;P1;durP2;ratioP2;P2;SDS_P1;SDS_P2;PMS_P1;PMS_P2;Temp;Humidity;BMP_temperature;BMP_pressure;BME280_temperature;BME280_humidity;BME280_pressure;Samples;Min_cycle;Max_cycle;Signal;HPM_P1;HPM_P2
2023/04/28 00:01:41;;;;;;;10.00;6.68;;;;;;;;;;5046555;28;20205;-67
2023/04/28 00:04:06;;;;;;;10.95;6.60;;;;;;;;;;5040501;28;20204;-67
2023/04/28 00:06:32;;;;;;;11.38;6.25;;;;;;;;;;5041798;28;20185;-67
2023/04/28 00:08:57;;;;;;;10.30;6.53;;;;;;;;;;5042699;28;20221;-67
2023/04/28 00:11:23;;;;;;;11.02;7.10;;;;;;;;;;5047645;28;20235;-67
2023/04/28 00:13:48;;;;;;;10.55;6.72;;;;;;;;;;5055351;28;20207;-67
2023/04/28 00:16:13;;;;;;;13.27;6.78;;;;;;;;;;5037360;28;20315;-67
2023/04/28 00:18:39;;;;;;;10.57;6.57;;;;;;;;;;5041700;28;20269;-67
2023/04/28 00:21:05;;;;;;;9.85;6.70;;;;;;;;;;5045700;28;20197;-68
2023/04/28 00:23:30;;;;;;;11.57;6.47;;;;;;;;;;5038124;28;20182;-68
2023/04/28 00:25:56;;;;;;;12.00;7.05;;;;;;;;;;5038361;28;20242;-67
2023/04/28 00:28:22;;;;;;;11.52;6.55;;;;;;;;;;5042776;28;20839;-67
2023/04/28 00:30:47;;;;;;;11.13;6.88;;;;;;;;;;5033239;28;20190;-68
2023/04/28 00:33:13;;;;;;;9.27;6.40;;;;;;;;;;5038569;28;20272;-67
2023/04/28 00:35:40;;;;;;;10.35;6.78;;;;;;;;;;5029138;28;20260;-67
2023/04/28 00:38:05;;;;;;;10.95;6.80;;;;;;;;;;5049178;28;20576;-68
2023/04/28 00:40:38;;;;;;;12.25;7.50;;;;;;;;;;5036135;28;20229;-68
2023/04/28 00:43:03;;;;;;;10.68;6.50;;;;;;;;;;5049067;28;20237;-67
2023/04/28 00:45:31;;;;;;;11.27;6.82;;;;;;;;;;5044602;28;20252;-67
2023/04/28 00:47:58;;;;;;;9.57;6.45;;;;;;;;;;5038479;28;20213;-67
2023/04/28 00:50:24;;;;;;;9.52;6.32;;;;;;;;;;5037518;28;20737;-68
2023/04/28 00:52:51;;;;;;;11.25;6.25;;;;;;;;;;5042771;28;20825;-66
2023/04/28 00:55:17;;;;;;;12.35;6.63;;;;;;;;;;5047776;28;20262;-67
2023/04/28 00:57:42;;;;;;;10.10;6.72;;;;;;;;;;5043901;28;20394;-68
2023/04/28 01:00:08;;;;;;;14.23;6.50;;;;;;;;;;5038454;28;20209;-68
2023/04/28 01:02:34;;;;;;;12.38;6.85;;;;;;;;;;5028453;28;20183;-67
2023/04/28 01:05:01;;;;;;;9.93;7.18;;;;;;;;;;5042912;28;20216;-67
2023/04/28 01:07:27;;;;;;;12.85;6.70;;;;;;;;;;5049157;28;20669;-67
2023/04/28 01:09:53;;;;;;;11.23;6.55;;;;;;;;;;5050208;28;20185;-66
2023/04/28 01:12:18;;;;;;;11.27;6.05;;;;;;;;;;5040624;28;20713;-66
2023/04/28 01:14:44;;;;;;;10.52;6.50;;;;;;;;;;5043983;28;20204;-67
2023/04/28 01:17:09;;;;;;;8.60;6.38;;;;;;;;;;5047469;28;20213;-66
2023/04/28 01:19:35;;;;;;;9.75;6.75;;;;;;;;;;5045432;28;20216;-67
2023/04/28 01:22:01;;;;;;;9.75;6.25;;;;;;;;;;5046678;28;20185;-67
2023/04/28 01:24:26;;;;;;;8.40;6.23;;;;;;;;;;5034175;28;20236;-67
2023/04/28 01:26:51;;;;;;;12.15;6.82;;;;;;;;;;5039040;28;20202;-66
2023/04/28 01:29:17;;;;;;;10.43;6.30;;;;;;;;;;5046038;28;20177;-67
2023/04/28 01:31:42;;;;;;;10.63;6.60;;;;;;;;;;5040619;28;20679;-67
2023/04/28 01:34:07;;;;;;;11.52;6.50;;;;;;;;;;5031348;28;20244;-67
2023/04/28 01:36:33;;;;;;;13.55;6.70;;;;;;;;;;5044853;28;20196;-67
2023/04/28 01:38:58;;;;;;;10.25;6.40;;;;;;;;;;5031830;28;20190;-66
2023/04/28 01:41:24;;;;;;;12.65;6.70;;;;;;;;;;5045156;28;20185;-66
2023/04/28 01:43:49;;;;;;;13.82;6.65;;;;;;;;;;5048536;28;20257;-67
2023/04/28 01:46:15;;;;;;;9.82;6.65;;;;;;;;;;5047064;28;20232;-67
2023/04/28 01:48:40;;;;;;;10.47;6.77;;;;;;;;;;5037678;28;20224;-66
2023/04/28 01:51:05;;;;;;;10.95;7.20;;;;;;;;;;5036055;28;20198;-67
2023/04/28 01:53:31;;;;;;;10.87;6.97;;;;;;;;;;5041801;28;20225;-67
2023/04/28 01:55:57;;;;;;;9.55;6.95;;;;;;;;;;5044258;28;20231;-66
2023/04/28 01:58:23;;;;;;;11.52;7.38;;;;;;;;;;5035631;28;20633;-68
2023/04/28 02:00:48;;;;;;;11.30;7.63;;;;;;;;;;5043155;28;20517;-68
2023/04/28 02:03:13;;;;;;;15.23;7.37;;;;;;;;;;5042942;28;20251;-68
2023/04/28 02:05:39;;;;;;;9.10;6.75;;;;;;;;;;5041849;28;20521;-67
2023/04/28 02:08:04;;;;;;;11.70;7.18;;;;;;;;;;5045610;28;20264;-67
2023/04/28 02:10:30;;;;;;;11.43;8.02;;;;;;;;;;5034795;28;20673;-68
2023/04/28 02:12:55;;;;;;;12.15;7.47;;;;;;;;;;5048209;28;20247;-67
2023/04/28 02:15:21;;;;;;;11.05;7.07;;;;;;;;;;5045366;28;20200;-67
2023/04/28 02:17:46;;;;;;;13.73;7.80;;;;;;;;;;5034989;28;20189;-66
2023/04/28 02:20:13;;;;;;;13.60;7.30;;;;;;;;;;5047942;28;20402;-66
2023/04/28 02:22:39;;;;;;;13.57;7.80;;;;;;;;;;5039350;28;20654;-66
2023/04/28 02:25:04;;;;;;;9.37;6.53;;;;;;;;;;5033486;28;20301;-67
2023/04/28 02:27:30;;;;;;;13.23;7.43;;;;;;;;;;5043576;28;20207;-66
2023/04/28 02:29:55;;;;;;;12.05;7.68;;;;;;;;;;5035216;28;20185;-67
2023/04/28 02:32:20;;;;;;;13.73;7.22;;;;;;;;;;5034516;28;20641;-66
2023/04/28 02:34:46;;;;;;;11.93;7.60;;;;;;;;;;5043293;28;20202;-66
2023/04/28 02:37:11;;;;;;;11.32;7.40;;;;;;;;;;5040042;28;20181;-67
2023/04/28 02:39:36;;;;;;;14.95;7.07;;;;;;;;;;5036008;28;20173;-67
2023/04/28 02:42:04;;;;;;;10.70;6.93;;;;;;;;;;5041879;28;20189;-66
2023/04/28 02:44:30;;;;;;;9.43;6.93;;;;;;;;;;5034523;28;20193;-67
2023/04/28 02:46:55;;;;;;;14.07;7.45;;;;;;;;;;5044474;28;20277;-67
2023/04/28 02:49:21;;;;;;;12.88;7.35;;;;;;;;;;5038330;28;20607;-66
2023/04/28 02:51:46;;;;;;;14.43;7.53;;;;;;;;;;5040324;28;20204;-66
2023/04/28 02:54:11;;;;;;;12.13;7.28;;;;;;;;;;5044629;28;20255;-66
2023/04/28 02:56:39;;;;;;;10.38;6.35;;;;;;;;;;5037466;28;20208;-66
2023/04/28 02:59:05;;;;;;;9.10;6.35;;;;;;;;;;5043186;28;20622;-66
2023/04/28 03:01:30;;;;;;;12.13;7.13;;;;;;;;;;5046110;28;20559;-66
2023/04/28 03:03:55;;;;;;;12.57;7.03;;;;;;;;;;5046842;28;20217;-66
2023/04/28 03:06:21;;;;;;;11.23;6.43;;;;;;;;;;5046049;28;20201;-66
2023/04/28 03:08:46;;;;;;;8.97;6.43;;;;;;;;;;5047241;28;20209;-67
2023/04/28 03:11:12;;;;;;;10.82;6.70;;;;;;;;;;5034072;28;20182;-67
2023/04/28 03:13:37;;;;;;;11.82;7.10;;;;;;;;;;5028060;28;20194;-67
2023/04/28 03:16:03;;;;;;;11.82;6.63;;;;;;;;;;5028042;28;20503;-67
2023/04/28 03:18:28;;;;;;;10.80;6.10;;;;;;;;;;5038545;28;20308;-67
2023/04/28 03:20:54;;;;;;;12.93;5.70;;;;;;;;;;5036644;28;20212;-67
2023/04/28 03:23:19;;;;;;;11.45;6.07;;;;;;;;;;5032716;28;20597;-67
2023/04/28 03:25:44;;;;;;;9.80;6.20;;;;;;;;;;5041996;28;20236;-67
2023/04/28 03:28:10;;;;;;;13.75;5.55;;;;;;;;;;5041170;28;20206;-67
2023/04/28 03:30:36;;;;;;;8.13;5.53;;;;;;;;;;5038390;28;20497;-67
2023/04/28 03:33:01;;;;;;;10.77;5.85;;;;;;;;;;5041836;28;20186;-67
2023/04/28 03:35:26;;;;;;;10.02;6.32;;;;;;;;;;5046730;28;20189;-67
2023/04/28 03:37:52;;;;;;;10.80;5.90;;;;;;;;;;5040641;28;20190;-67
2023/04/28 03:40:18;;;;;;;9.00;5.72;;;;;;;;;;5034005;28;20752;-67
2023/04/28 03:42:43;;;;;;;13.82;6.15;;;;;;;;;;5050605;28;20211;-67
2023/04/28 03:45:09;;;;;;;9.77;5.57;;;;;;;;;;5049340;28;20596;-67
2023/04/28 03:47:35;;;;;;;11.60;5.85;;;;;;;;;;5048266;28;20221;-67
2023/04/28 03:50:01;;;;;;;8.55;5.97;;;;;;;;;;5047834;28;20204;-67
2023/04/28 03:52:26;;;;;;;9.05;5.75;;;;;;;;;;5055889;28;20200;-67
2023/04/28 03:54:52;;;;;;;8.82;6.15;;;;;;;;;;5042625;28;20194;-67
2023/04/28 03:57:17;;;;;;;9.95;6.00;;;;;;;;;;5047499;28;20226;-67
2023/04/28 03:59:42;;;;;;;11.95;6.20;;;;;;;;;;5052148;28;20197;-67
2023/04/28 04:02:08;;;;;;;9.20;5.68;;;;;;;;;;5043493;28;20363;-67
2023/04/28 04:04:33;;;;;;;11.23;6.35;;;;;;;;;;5017566;28;20194;-67
2023/04/28 04:06:59;;;;;;;9.10;5.47;;;;;;;;;;5047289;28;20604;-67
2023/04/28 04:09:25;;;;;;;9.43;5.70;;;;;;;;;;5050230;28;20601;-67
2023/04/28 04:11:50;;;;;;;9.48;6.00;;;;;;;;;;5041020;28;20573;-67
2023/04/28 04:14:15;;;;;;;8.90;5.78;;;;;;;;;;5030040;28;20264;-67
2023/04/28 04:16:41;;;;;;;8.38;5.95;;;;;;;;;;5044523;28;20259;-67
2023/04/28 04:19:07;;;;;;;9.63;5.95;;;;;;;;;;5048395;28;20541;-67
2023/04/28 04:21:32;;;;;;;10.73;6.47;;;;;;;;;;5049013;28;20629;-67
2023/04/28 04:23:57;;;;;;;9.27;6.00;;;;;;;;;;5044083;28;20185;-67
2023/04/28 04:26:23;;;;;;;9.02;6.10;;;;;;;;;;5047961;28;20224;-67
2023/04/28 04:28:48;;;;;;;9.88;5.63;;;;;;;;;;5032766;28;20233;-67
2023/04/28 04:31:14;;;;;;;8.95;5.93;;;;;;;;;;5043598;28;20193;-67
2023/04/28 04:33:40;;;;;;;11.32;6.35;;;;;;;;;;5047521;28;20624;-67
2023/04/28 04:36:06;;;;;;;9.60;5.95;;;;;;;;;;5048625;28;20189;-67
2023/04/28 04:38:31;;;;;;;9.77;5.57;;;;;;;;;;5041578;28;20201;-67
2023/04/28 04:40:56;;;;;;;13.63;5.47;;;;;;;;;;5039443;28;20193;-67
2023/04/28 04:43:22;;;;;;;8.85;6.03;;;;;;;;;;5038531;28;20607;-67
2023/04/28 04:45:47;;;;;;;8.82;5.65;;;;;;;;;;5039224;28;20588;-67
2023/04/28 04:48:13;;;;;;;11.82;6.20;;;;;;;;;;5047970;28;20213;-67
2023/04/28 04:50:39;;;;;;;12.88;6.72;;;;;;;;;;5048786;28;20189;-67
2023/04/28 04:53:04;;;;;;;10.00;5.80;;;;;;;;;;5049269;28;20194;-68
2023/04/28 04:55:30;;;;;;;12.95;6.00;;;;;;;;;;5035623;28;20194;-67
2023/04/28 04:57:55;;;;;;;10.20;6.18;;;;;;;;;;5042225;28;20272;-67
2023/04/28 05:00:21;;;;;;;7.22;5.50;;;;;;;;;;5042495;28;20579;-67
2023/04/28 05:02:46;;;;;;;7.57;5.95;;;;;;;;;;5048400;28;20225;-67
2023/04/28 05:05:11;;;;;;;10.05;5.57;;;;;;;;;;5029743;28;20201;-67
2023/04/28 05:07:37;;;;;;;11.55;5.72;;;;;;;;;;5034366;28;20577;-67
2023/04/28 05:10:02;;;;;;;13.82;6.90;;;;;;;;;;5037736;28;20206;-68
2023/04/28 05:12:28;;;;;;;11.23;5.95;;;;;;;;;;5032595;28;20193;-68
2023/04/28 05:14:53;;;;;;;8.35;5.57;;;;;;;;;;5048146;28;20193;-67
2023/04/28 05:17:18;;;;;;;9.40;5.40;;;;;;;;;;5041865;28;20190;-67
2023/04/28 05:19:44;;;;;;;10.25;6.30;;;;;;;;;;5029975;28;20308;-68
2023/04/28 05:22:10;;;;;;;10.63;6.07;;;;;;;;;;5042018;28;20668;-67
2023/04/28 05:24:35;;;;;;;8.70;5.40;;;;;;;;;;5049052;28;20216;-67
2023/04/28 05:27:01;;;;;;;11.48;5.88;;;;;;;;;;5039753;28;20218;-67
2023/04/28 05:29:26;;;;;;;11.98;6.03;;;;;;;;;;5044072;28;20200;-68
2023/04/28 05:31:51;;;;;;;10.73;6.07;;;;;;;;;;5039529;28;20190;-67
2023/04/28 05:34:17;;;;;;;12.50;5.93;;;;;;;;;;5033266;28;20186;-67
2023/04/28 05:36:43;;;;;;;8.77;6.38;;;;;;;;;;5041061;28;20311;-67
2023/04/28 05:39:08;;;;;;;9.68;5.95;;;;;;;;;;5043312;28;20186;-68
2023/04/28 05:41:35;;;;;;;9.13;5.90;;;;;;;;;;5033666;28;20208;-67
2023/04/28 05:44:01;;;;;;;9.30;5.63;;;;;;;;;;5034472;28;20190;-68
2023/04/28 05:46:26;;;;;;;9.35;5.65;;;;;;;;;;5046150;28;20233;-67
2023/04/28 05:48:51;;;;;;;11.32;6.60;;;;;;;;;;5035340;28;20205;-67
2023/04/28 05:51:17;;;;;;;10.30;6.10;;;;;;;;;;5044405;28;20229;-67
2023/04/28 05:53:42;;;;;;;9.30;5.80;;;;;;;;;;5035712;28;20189;-67
2023/04/28 05:56:07;;;;;;;9.52;5.93;;;;;;;;;;5042306;28;20229;-67
2023/04/28 05:58:33;;;;;;;7.68;5.15;;;;;;;;;;5033928;28;20178;-67
2023/04/28 06:00:59;;;;;;;8.23;5.32;;;;;;;;;;5045776;28;20566;-68
2023/04/28 06:03:24;;;;;;;11.48;5.90;;;;;;;;;;5040915;28;20200;-68
2023/04/28 06:05:50;;;;;;;11.70;6.30;;;;;;;;;;5028889;28;20194;-68
2023/04/28 06:08:15;;;;;;;7.65;5.28;;;;;;;;;;5040744;28;20301;-68
2023/04/28 06:10:41;;;;;;;9.27;5.45;;;;;;;;;;5036457;28;20273;-68
2023/04/28 06:13:07;;;;;;;8.07;5.55;;;;;;;;;;5041753;28;20218;-68
2023/04/28 06:15:33;;;;;;;13.10;6.22;;;;;;;;;;5039903;28;20228;-68
2023/04/28 06:17:59;;;;;;;10.35;5.82;;;;;;;;;;5046787;28;20206;-68
2023/04/28 06:20:24;;;;;;;8.75;5.90;;;;;;;;;;4335734;28;10000708;-68
2023/04/28 06:22:50;;;;;;;10.15;5.82;;;;;;;;;;5038118;28;20186;-68
2023/04/28 06:25:16;;;;;;;10.52;6.00;;;;;;;;;;5043194;28;20671;-68
2023/04/28 06:27:41;;;;;;;6.68;5.38;;;;;;;;;;5036388;28;20209;-69
2023/04/28 06:30:07;;;;;;;8.27;5.78;;;;;;;;;;5037500;28;20210;-68
2023/04/28 06:32:32;;;;;;;13.32;5.95;;;;;;;;;;5032538;28;20256;-68
2023/04/28 06:34:58;;;;;;;8.30;5.75;;;;;;;;;;5042610;28;20299;-68
2023/04/28 06:37:23;;;;;;;10.63;6.18;;;;;;;;;;5035025;28;20204;-69
2023/04/28 06:39:48;;;;;;;8.95;5.95;;;;;;;;;;5034818;28;20259;-68
2023/04/28 06:42:17;;;;;;;11.55;6.10;;;;;;;;;;5033674;28;20194;-68
2023/04/28 06:44:42;;;;;;;12.60;6.18;;;;;;;;;;5028562;28;20234;-68
2023/04/28 06:47:08;;;;;;;10.25;5.97;;;;;;;;;;5042734;28;20239;-68
2023/04/28 06:49:33;;;;;;;11.55;6.47;;;;;;;;;;5041151;28;20181;-68
2023/04/28 06:51:58;;;;;;;9.27;6.15;;;;;;;;;;5042980;28;20255;-68
2023/04/28 06:54:24;;;;;;;9.70;6.40;;;;;;;;;;5046142;28;20253;-68
2023/04/28 06:56:49;;;;;;;9.00;6.35;;;;;;;;;;5041018;28;20538;-69
2023/04/28 06:59:15;;;;;;;15.27;5.93;;;;;;;;;;5037027;28;20188;-68
2023/04/28 07:01:40;;;;;;;12.02;6.13;;;;;;;;;;5041936;28;20235;-68
2023/04/28 07:04:05;;;;;;;8.20;6.32;;;;;;;;;;5043665;28;20652;-68
2023/04/28 07:06:31;;;;;;;15.38;6.50;;;;;;;;;;5040925;28;20524;-68
2023/04/28 07:08:56;;;;;;;15.50;6.88;;;;;;;;;;5047710;28;20205;-68
2023/04/28 07:11:22;;;;;;;9.82;6.32;;;;;;;;;;5038364;28;20201;-68
2023/04/28 07:13:50;;;;;;;10.48;6.97;;;;;;;;;;5034524;28;20193;-68
2023/04/28 07:16:16;;;;;;;9.63;6.53;;;;;;;;;;5035797;28;20650;-68
2023/04/28 07:18:41;;;;;;;10.70;6.57;;;;;;;;;;5041200;28;20186;-68
2023/04/28 07:21:07;;;;;;;14.30;7.20;;;;;;;;;;5051646;28;20212;-68
2023/04/28 07:23:32;;;;;;;13.55;7.55;;;;;;;;;;5052944;28;20775;-68
2023/04/28 07:25:57;;;;;;;13.35;6.07;;;;;;;;;;5045657;28;20209;-68
2023/04/28 07:28:23;;;;;;;13.50;7.45;;;;;;;;;;5034919;28;20297;-68
2023/04/28 07:30:48;;;;;;;9.85;7.30;;;;;;;;;;5035714;28;20415;-68
2023/04/28 07:33:14;;;;;;;9.85;7.20;;;;;;;;;;5037159;28;20217;-68
2023/04/28 07:35:39;;;;;;;13.82;7.70;;;;;;;;;;4687653;28;10000040;-69
2023/04/28 07:38:05;;;;;;;12.70;8.13;;;;;;;;;;5035754;28;20190;-69
2023/04/28 07:40:30;;;;;;;11.57;8.88;;;;;;;;;;5036890;28;20194;-69
2023/04/28 07:42:56;;;;;;;14.32;9.40;;;;;;;;;;5034944;28;20194;-70
2023/04/28 07:45:21;;;;;;;15.93;8.75;;;;;;;;;;5045945;28;20225;-69
2023/04/28 07:47:46;;;;;;;16.05;9.23;;;;;;;;;;5045343;28;20221;-69
2023/04/28 07:50:12;;;;;;;15.98;9.73;;;;;;;;;;5047373;28;20684;-71
2023/04/28 07:52:38;;;;;;;12.98;8.82;;;;;;;;;;5046787;28;20259;-75
2023/04/28 07:55:04;;;;;;;14.95;9.77;;;;;;;;;;5042929;28;20185;-75
2023/04/28 07:57:30;;;;;;;13.10;9.32;;;;;;;;;;5054888;28;20285;-74
2023/04/28 07:59:55;;;;;;;15.30;10.40;;;;;;;;;;5044471;28;20235;-73
2023/04/28 08:02:26;;;;;;;21.02;10.23;;;;;;;;;;5020411;28;20225;-70
2023/04/28 08:04:51;;;;;;;15.18;9.98;;;;;;;;;;5034434;28;20190;-71
2023/04/28 08:07:16;;;;;;;14.60;10.15;;;;;;;;;;5039463;28;20536;-71
2023/04/28 08:09:46;;;;;;;14.52;10.35;;;;;;;;;;5035154;28;20198;-71
2023/04/28 08:12:12;;;;;;;14.63;9.18;;;;;;;;;;5041211;28;20604;-70
2023/04/28 08:14:37;;;;;;;16.92;9.55;;;;;;;;;;5038749;28;20476;-70
2023/04/28 08:17:02;;;;;;;14.15;10.38;;;;;;;;;;5040883;28;20554;-70
2023/04/28 08:19:28;;;;;;;18.85;10.40;;;;;;;;;;5048193;28;20271;-69
2023/04/28 08:21:53;;;;;;;15.30;9.50;;;;;;;;;;5045790;28;20194;-70
2023/04/28 08:24:18;;;;;;;15.07;10.23;;;;;;;;;;5039714;28;20194;-69
2023/04/28 08:26:44;;;;;;;18.90;10.98;;;;;;;;;;5048924;28;20693;-69
2023/04/28 08:29:09;;;;;;;17.98;10.90;;;;;;;;;;5039718;28;20220;-70
2023/04/28 08:31:35;;;;;;;16.23;11.05;;;;;;;;;;5042152;28;20197;-69
2023/04/28 08:34:00;;;;;;;17.08;10.63;;;;;;;;;;5038665;28;20194;-71
2023/04/28 08:36:30;;;;;;;12.88;9.55;;;;;;;;;;5037286;28;20233;-70
2023/04/28 08:38:58;;;;;;;16.15;10.43;;;;;;;;;;5051955;28;20193;-70
2023/04/28 08:41:25;;;;;;;14.07;9.20;;;;;;;;;;5043226;28;20185;-70
2023/04/28 08:43:50;;;;;;;16.02;9.70;;;;;;;;;;5033136;28;20290;-70
2023/04/28 08:46:19;;;;;;;14.02;10.80;;;;;;;;;;5039880;28;20755;-70
2023/04/28 08:48:45;;;;;;;14.65;9.98;;;;;;;;;;5045628;28;20740;-69
2023/04/28 08:51:24;;;;;;;16.85;10.77;;;;;;;;;;5046077;28;20190;-70
2023/04/28 08:53:53;;;;;;;14.77;10.98;;;;;;;;;;5031323;28;20198;-69
2023/04/28 08:56:22;;;;;;;15.88;10.70;;;;;;;;;;5030997;28;20186;-69
2023/04/28 08:58:49;;;;;;;16.02;10.93;;;;;;;;;;5032062;28;20209;-69
2023/04/28 09:01:14;;;;;;;18.88;10.43;;;;;;;;;;5029279;28;20707;-69
2023/04/28 09:03:40;;;;;;;17.40;10.93;;;;;;;;;;5031496;28;20390;-69
2023/04/28 09:06:05;;;;;;;16.38;11.70;;;;;;;;;;5031689;28;20603;-70
2023/04/28 09:08:30;;;;;;;15.10;11.35;;;;;;;;;;5040269;28;20214;-70
2023/04/28 09:11:09;;;;;;;17.88;12.02;;;;;;;;;;5041835;28;20658;-69
2023/04/28 09:13:36;;;;;;;13.70;10.48;;;;;;;;;;5040661;28;20280;-70
2023/04/28 09:16:02;;;;;;;15.82;11.18;;;;;;;;;;5035710;28;20193;-70
2023/04/28 09:18:31;;;;;;;17.65;11.23;;;;;;;;;;5045502;28;20594;-69
2023/04/28 09:21:07;;;;;;;15.77;11.23;;;;;;;;;;5043455;28;20181;-70
2023/04/28 09:23:33;;;;;;;18.67;11.65;;;;;;;;;;5040867;28;20247;-69
2023/04/28 09:26:09;;;;;;;16.60;12.30;;;;;;;;;;5044529;28;20289;-69
2023/04/28 09:28:35;;;;;;;16.02;11.65;;;;;;;;;;5040201;28;20213;-69
2023/04/28 09:31:01;;;;;;;16.33;11.13;;;;;;;;;;5040516;28;20205;-70
2023/04/28 09:33:27;;;;;;;17.52;11.00;;;;;;;;;;5044290;28;20862;-69
2023/04/28 09:35:52;;;;;;;14.90;11.00;;;;;;;;;;5040349;28;20190;-70
2023/04/28 09:38:20;;;;;;;16.33;11.15;;;;;;;;;;5039080;28;20197;-69
2023/04/28 09:40:52;;;;;;;19.75;12.48;;;;;;;;;;5028798;28;20205;-69
2023/04/28 09:43:29;;;;;;;15.43;11.70;;;;;;;;;;5038304;28;20675;-68
2023/04/28 09:45:55;;;;;;;16.77;11.13;;;;;;;;;;5040220;28;20257;-69
2023/04/28 09:48:32;;;;;;;16.23;11.02;;;;;;;;;;5042060;28;20262;-69
2023/04/28 09:50:59;;;;;;;16.92;10.55;;;;;;;;;;5037204;28;20226;-69
2023/04/28 09:53:26;;;;;;;14.10;9.80;;;;;;;;;;5041113;28;20521;-69
2023/04/28 09:55:53;;;;;;;13.80;9.02;;;;;;;;;;5035005;28;20784;-69
2023/04/28 09:58:20;;;;;;;17.02;9.95;;;;;;;;;;5037419;28;20273;-69
2023/04/28 10:00:52;;;;;;;12.10;9.20;;;;;;;;;;5040741;28;20284;-70
2023/04/28 10:03:19;;;;;;;12.63;9.75;;;;;;;;;;5043044;28;20498;-69
2023/04/28 10:05:46;;;;;;;11.40;9.38;;;;;;;;;;5035480;28;20235;-69
2023/04/28 10:08:12;;;;;;;16.17;9.27;;;;;;;;;;5032502;28;20216;-69
2023/04/28 10:10:38;;;;;;;14.52;9.05;;;;;;;;;;5042411;28;20205;-70
2023/04/28 10:13:03;;;;;;;13.95;9.43;;;;;;;;;;5038927;28;20217;-69
2023/04/28 10:15:30;;;;;;;14.35;8.35;;;;;;;;;;5039864;28;20998;-70
2023/04/28 10:17:57;;;;;;;12.35;8.75;;;;;;;;;;5042239;28;20188;-70
2023/04/28 10:20:24;;;;;;;11.10;9.18;;;;;;;;;;5028199;28;20661;-69
2023/04/28 10:23:01;;;;;;;10.70;9.30;;;;;;;;;;5033470;28;20317;-69
2023/04/28 10:25:30;;;;;;;14.90;9.57;;;;;;;;;;5035219;28;20212;-69
2023/04/28 10:27:57;;;;;;;13.23;10.00;;;;;;;;;;5043164;28;20209;-68
2023/04/28 10:30:27;;;;;;;15.27;10.23;;;;;;;;;;5034624;28;20376;-70
2023/04/28 10:33:10;;;;;;;16.10;9.90;;;;;;;;;;5032564;28;20194;-70
2023/04/28 10:35:41;;;;;;;15.60;10.07;;;;;;;;;;5040591;28;20208;-70
2023/04/28 10:38:19;;;;;;;10.85;9.73;;;;;;;;;;5046676;28;20188;-70
2023/04/28 10:40:47;;;;;;;13.98;9.88;;;;;;;;;;5045065;28;20539;-70
2023/04/28 10:43:23;;;;;;;12.18;9.43;;;;;;;;;;5034313;28;20246;-70
2023/04/28 10:45:52;;;;;;;14.77;10.13;;;;;;;;;;5036944;28;20226;-69
2023/04/28 10:48:18;;;;;;;16.77;10.10;;;;;;;;;;5034045;28;20213;-69
2023/04/28 10:51:02;;;;;;;14.25;9.98;;;;;;;;;;5045623;28;20260;-70
2023/04/28 10:53:51;;;;;;;13.73;9.73;;;;;;;;;;5039032;28;20644;-69
2023/04/28 10:56:23;;;;;;;14.57;9.68;;;;;;;;;;5029034;28;20285;-69
2023/04/28 10:58:53;;;;;;;13.40;10.73;;;;;;;;;;5044779;28;20285;-70
2023/04/28 11:01:23;;;;;;;16.55;10.57;;;;;;;;;;5046865;28;20312;-69
2023/04/28 11:03:52;;;;;;;12.75;9.70;;;;;;;;;;5046889;28;20212;-70
2023/04/28 11:06:33;;;;;;;15.27;10.20;;;;;;;;;;5037369;28;20277;-70
2023/04/28 11:09:00;;;;;;;17.13;11.05;;;;;;;;;;5037940;28;20209;-70
2023/04/28 11:11:35;;;;;;;13.73;11.57;;;;;;;;;;5040862;28;20679;-69
2023/04/28 11:14:15;;;;;;;15.52;11.52;;;;;;;;;;5036240;28;20200;-70
2023/04/28 11:16:52;;;;;;;14.25;10.90;;;;;;;;;;5041691;28;20212;-69
2023/04/28 11:19:20;;;;;;;19.65;11.88;;;;;;;;;;5043345;28;20350;-69
2023/04/28 11:21:47;;;;;;;13.60;11.43;;;;;;;;;;5032558;28;20239;-69
2023/04/28 11:24:12;;;;;;;14.25;11.05;;;;;;;;;;5045467;28;20189;-69
2023/04/28 11:26:39;;;;;;;15.70;12.32;;;;;;;;;;5046503;28;20507;-69
2023/04/28 11:29:04;;;;;;;13.82;12.15;;;;;;;;;;5036329;28;20210;-69
2023/04/28 11:31:30;;;;;;;17.67;13.02;;;;;;;;;;5042986;28;20196;-69
2023/04/28 11:34:10;;;;;;;16.80;13.25;;;;;;;;;;5040578;28;20618;-70
2023/04/28 11:36:38;;;;;;;17.38;13.10;;;;;;;;;;5034473;28;20704;-69
2023/04/28 11:39:08;;;;;;;19.55;15.05;;;;;;;;;;5037792;28;20195;-69
2023/04/28 11:41:43;;;;;;;18.75;16.08;;;;;;;;;;5041773;28;20213;-68
2023/04/28 11:44:10;;;;;;;18.50;14.85;;;;;;;;;;5037380;28;20235;-69
2023/04/28 11:46:56;;;;;;;20.23;17.52;;;;;;;;;;5031539;28;20851;-69
2023/04/28 11:49:42;;;;;;;25.70;18.75;;;;;;;;;;5052603;28;20204;-69
2023/04/28 11:52:08;;;;;;;22.10;17.38;;;;;;;;;;5047221;28;20523;-68
2023/04/28 11:54:36;;;;;;;27.02;19.48;;;;;;;;;;5043997;28;20844;-69
2023/04/28 11:57:04;;;;;;;23.05;18.20;;;;;;;;;;5039248;28;20268;-69
2023/04/28 11:59:49;;;;;;;21.30;19.10;;;;;;;;;;5037815;28;20289;-68
2023/04/28 12:02:16;;;;;;;19.27;17.27;;;;;;;;;;5044715;28;20193;-68
2023/04/28 12:04:43;;;;;;;19.95;16.63;;;;;;;;;;5040227;28;20177;-68
2023/04/28 12:07:17;;;;;;;22.48;20.05;;;;;;;;;;5041206;28;20217;-68
2023/04/28 12:09:45;;;;;;;23.52;18.75;;;;;;;;;;5039730;28;20200;-68
2023/04/28 12:12:14;;;;;;;23.05;20.67;;;;;;;;;;5035524;28;20189;-67
2023/04/28 12:14:56;;;;;;;23.05;20.77;;;;;;;;;;5041597;28;20254;-68
2023/04/28 12:17:49;;;;;;;25.52;22.08;;;;;;;;;;5038916;28;20185;-67
2023/04/28 12:20:37;;;;;;;27.77;23.85;;;;;;;;;;5037144;28;20204;-67
2023/04/28 12:23:02;;;;;;;28.42;24.38;;;;;;;;;;5041848;28;20671;-68
2023/04/28 12:25:28;;;;;;;28.90;25.85;;;;;;;;;;5042513;28;20200;-68
2023/04/28 12:28:06;;;;;;;27.95;25.05;;;;;;;;;;5047813;28;20216;-68
2023/04/28 12:30:33;;;;;;;31.45;28.05;;;;;;;;;;5038256;28;20193;-68
2023/04/28 12:32:59;;;;;;;32.63;28.02;;;;;;;;;;5031341;28;20212;-68
2023/04/28 12:35:26;;;;;;;36.30;29.90;;;;;;;;;;5041560;28;20606;-68
2023/04/28 12:37:52;;;;;;;34.88;31.20;;;;;;;;;;5048647;28;20185;-69
2023/04/28 12:40:18;;;;;;;35.90;31.25;;;;;;;;;;5034803;28;20189;-68
2023/04/28 12:42:44;;;;;;;37.53;31.85;;;;;;;;;;5049991;28;20649;-68
2023/04/28 12:45:09;;;;;;;40.40;35.08;;;;;;;;;;5039438;28;20237;-68
2023/04/28 12:47:37;;;;;;;39.17;34.65;;;;;;;;;;5044820;28;20217;-68
2023/04/28 12:50:03;;;;;;;42.20;36.33;;;;;;;;;;5034147;28;20366;-68
2023/04/28 12:52:31;;;;;;;41.67;36.10;;;;;;;;;;5050330;28;20195;-70
2023/04/28 12:54:57;;;;;;;41.95;36.60;;;;;;;;;;5050628;28;20185;-68
2023/04/28 12:57:22;;;;;;;40.78;35.63;;;;;;;;;;5054479;28;20242;-68
2023/04/28 12:59:48;;;;;;;37.08;31.83;;;;;;;;;;5052528;28;20185;-68
2023/04/28 13:02:14;;;;;;;34.97;30.45;;;;;;;;;;5051045;28;20186;-68
2023/04/28 13:04:41;;;;;;;39.08;34.35;;;;;;;;;;5048753;28;20189;-68
2023/04/28 13:07:07;;;;;;;38.78;32.28;;;;;;;;;;5039588;28;20532;-68
2023/04/28 13:09:32;;;;;;;33.97;30.30;;;;;;;;;;5044795;28;20220;-68
2023/04/28 13:11:58;;;;;;;33.08;29.52;;;;;;;;;;5041372;28;20656;-68
2023/04/28 13:14:25;;;;;;;34.83;29.58;;;;;;;;;;5032209;28;20213;-69
2023/04/28 13:16:51;;;;;;;31.58;28.20;;;;;;;;;;5043614;28;20551;-68
2023/04/28 13:19:17;;;;;;;34.15;28.63;;;;;;;;;;5040247;28;20590;-69
2023/04/28 13:21:43;;;;;;;35.38;30.23;;;;;;;;;;5044980;28;20324;-68
2023/04/28 13:24:09;;;;;;;31.00;27.02;;;;;;;;;;5044554;28;20496;-69
2023/04/28 13:26:36;;;;;;;26.55;23.65;;;;;;;;;;5041193;28;20197;-68
2023/04/28 13:29:02;;;;;;;28.02;22.90;;;;;;;;;;5045477;28;20716;-68
2023/04/28 13:31:31;;;;;;;24.23;20.40;;;;;;;;;;5042919;28;20226;-68
2023/04/28 13:33:57;;;;;;;22.13;19.92;;;;;;;;;;5039700;28;20190;-68
2023/04/28 13:36:22;;;;;;;27.65;20.65;;;;;;;;;;5043596;28;20190;-68
2023/04/28 13:38:49;;;;;;;28.80;21.38;;;;;;;;;;5045843;28;20201;-68
2023/04/28 13:41:15;;;;;;;20.55;18.42;;;;;;;;;;5034078;28;20199;-69
2023/04/28 13:43:40;;;;;;;21.42;19.13;;;;;;;;;;5036365;28;20181;-68
2023/04/28 13:46:07;;;;;;;20.98;18.70;;;;;;;;;;5042072;28;20248;-69
2023/04/28 13:48:36;;;;;;;21.08;18.83;;;;;;;;;;5037292;28;20635;-69
2023/04/28 13:51:02;;;;;;;23.17;19.55;;;;;;;;;;5040136;28;20711;-69
2023/04/28 13:53:28;;;;;;;22.50;19.33;;;;;;;;;;5045012;28;20753;-69
2023/04/28 13:55:56;;;;;;;23.92;18.45;;;;;;;;;;5034393;28;20637;-69
2023/04/28 13:58:28;;;;;;;20.92;17.50;;;;;;;;;;5039791;28;20173;-69
2023/04/28 14:00:54;;;;;;;18.85;16.73;;;;;;;;;;5040825;28;20211;-69
2023/04/28 14:03:21;;;;;;;21.00;16.80;;;;;;;;;;5045632;28;20501;-69
2023/04/28 14:05:56;;;;;;;19.25;16.95;;;;;;;;;;5042475;28;20595;-68
2023/04/28 14:08:23;;;;;;;17.90;13.77;;;;;;;;;;5031468;28;20285;-68
2023/04/28 14:10:49;;;;;;;14.20;12.70;;;;;;;;;;5043920;28;20828;-69
2023/04/28 14:13:14;;;;;;;13.00;11.60;;;;;;;;;;5037229;28;20193;-68
2023/04/28 14:15:40;;;;;;;12.07;10.77;;;;;;;;;;5037716;28;20232;-68
2023/04/28 14:18:07;;;;;;;11.90;10.13;;;;;;;;;;5049269;28;20188;-68
2023/04/28 14:20:33;;;;;;;11.90;9.70;;;;;;;;;;5051783;28;20196;-69
2023/04/28 14:22:58;;;;;;;11.05;9.40;;;;;;;;;;5042343;28;20209;-67
2023/04/28 14:25:24;;;;;;;9.88;7.85;;;;;;;;;;5045793;28;20186;-68
2023/04/28 14:27:50;;;;;;;10.43;8.52;;;;;;;;;;5040992;28;20707;-68